createdAt,value
2017-08-26T00:02:24.142Z,69.80
2017-08-26T00:04:51.615Z,69.70
2017-08-26T00:07:19.107Z,69.90
2017-08-26T00:09:46.585Z,70.10
2017-08-26T00:12:14.102Z,70.20
2017-08-26T00:14:41.654Z,70.30
2017-08-26T00:17:09.238Z,70.20
2017-08-26T00:19:36.792Z,70.10
2017-08-26T00:22:04.256Z,70.40
2017-08-26T00:24:31.799Z,70.60
2017-08-26T00:26:59.375Z,70.50
2017-08-26T00:29:26.926Z,70.50
2017-08-26T00:31:54.398Z,70.30
2017-08-26T00:34:21.862Z,71.10
2017-08-26T00:36:49.399Z,70.60
2017-08-26T00:39:16.862Z,70.40
2017-08-26T00:41:44.394Z,70.50
2017-08-26T00:44:11.849Z,70.50
2017-08-26T00:46:39.427Z,70.50
2017-08-26T00:49:07.007Z,70.40
2017-08-26T00:51:34.464Z,70.40
2017-08-26T00:54:02.023Z,70.60
2017-08-26T00:56:29.546Z,70.80
2017-08-26T00:58:57.120Z,70.80
2017-08-26T01:01:24.604Z,70.70
2017-08-26T01:03:52.066Z,71.10
2017-08-26T01:06:19.539Z,70.70
2017-08-26T01:08:47.038Z,71.00
2017-08-26T01:11:14.606Z,71.20
2017-08-26T01:13:42.158Z,71.10
2017-08-26T01:16:09.630Z,71.00
2017-08-26T01:18:37.122Z,71.10
2017-08-26T01:21:04.632Z,71.10
2017-08-26T01:23:32.111Z,70.80
2017-08-26T01:25:59.643Z,71.00
2017-08-26T01:28:27.111Z,71.10
2017-08-26T01:30:54.591Z,71.30
2017-08-26T01:33:22.113Z,71.40
2017-08-26T01:35:49.585Z,71.40
2017-08-26T01:38:17.071Z,71.50
2017-08-26T01:40:44.578Z,72.10
2017-08-26T01:43:12.159Z,71.50
2017-08-26T01:45:39.625Z,71.60
2017-08-26T01:48:07.099Z,71.60
2017-08-26T01:50:34.579Z,71.70
2017-08-26T01:53:02.058Z,71.80
2017-08-26T01:55:29.517Z,71.90
2017-08-26T01:57:57.018Z,71.80
2017-08-26T02:00:24.542Z,71.80
2017-08-26T02:02:52.110Z,71.60
2017-08-26T02:05:19.751Z,71.60
2017-08-26T02:07:47.230Z,71.80
2017-08-26T02:10:14.789Z,72.00
2017-08-26T02:12:42.270Z,72.90
2017-08-26T02:15:09.812Z,71.80
2017-08-26T02:17:37.285Z,72.00
2017-08-26T02:20:04.805Z,72.10
2017-08-26T02:22:32.372Z,72.10
2017-08-26T02:24:59.996Z,72.10
2017-08-26T02:27:27.502Z,72.10
2017-08-26T02:29:54.974Z,72.10
2017-08-26T02:32:22.430Z,71.80
2017-08-26T02:34:49.977Z,72.00
2017-08-26T02:37:17.467Z,72.20
2017-08-26T02:39:44.957Z,72.40
2017-08-26T02:42:12.544Z,72.20
2017-08-26T02:44:40.016Z,72.30
2017-08-26T02:47:07.487Z,72.30
2017-08-26T02:49:35.021Z,72.50
2017-08-26T02:52:02.503Z,72.60
2017-08-26T02:54:30.041Z,72.80
2017-08-26T02:56:57.511Z,72.70
2017-08-26T02:59:25.042Z,72.60
2017-08-26T03:01:52.517Z,72.50
2017-08-26T03:04:20.020Z,72.50
2017-08-26T03:06:47.505Z,72.60
2017-08-26T03:09:14.993Z,72.60
2017-08-26T03:11:42.536Z,72.70
2017-08-26T03:14:10.001Z,72.90
2017-08-26T03:16:37.588Z,73.00
2017-08-26T03:19:05.094Z,73.00
2017-08-26T03:21:32.570Z,72.90
2017-08-26T03:24:00.040Z,72.90
2017-08-26T03:26:27.513Z,73.20
2017-08-26T03:28:55.026Z,73.30
2017-08-26T03:31:22.587Z,73.20
2017-08-26T03:33:50.062Z,73.30
2017-08-26T03:36:17.566Z,73.40
2017-08-26T03:38:45.070Z,73.40
2017-08-26T03:41:12.620Z,73.30
2017-08-26T03:43:40.082Z,74.00
2017-08-26T03:46:07.566Z,72.60
2017-08-26T03:48:35.081Z,73.00
2017-08-26T03:51:02.638Z,73.00
2017-08-26T03:53:30.194Z,72.90
2017-08-26T03:55:57.692Z,72.90
2017-08-26T03:58:25.222Z,73.10
2017-08-26T04:00:52.766Z,73.00
2017-08-26T04:03:20.335Z,72.30
2017-08-26T04:05:47.815Z,73.10
2017-08-26T04:08:15.400Z,73.80
2017-08-26T04:10:42.921Z,73.10
2017-08-26T04:13:10.399Z,73.20
2017-08-26T04:15:37.889Z,73.30
2017-08-26T04:18:05.370Z,73.50
2017-08-26T04:20:32.853Z,73.40
2017-08-26T04:23:00.360Z,74.10
2017-08-26T04:25:27.849Z,73.30
2017-08-26T04:27:55.317Z,73.40
2017-08-26T04:30:22.875Z,74.20
2017-08-26T04:32:50.363Z,73.40
2017-08-26T04:35:17.891Z,73.50
2017-08-26T04:37:45.363Z,73.40
2017-08-26T04:40:12.889Z,73.60
2017-08-26T04:42:40.454Z,73.40
2017-08-26T04:45:07.932Z,73.70
2017-08-26T04:47:35.468Z,73.60
2017-08-26T04:50:02.952Z,74.00
2017-08-26T04:52:30.430Z,73.90
2017-08-26T04:54:57.942Z,74.00
2017-08-26T04:57:25.425Z,73.80
2017-08-26T04:59:53.010Z,73.80
2017-08-26T05:02:20.514Z,73.50
2017-08-26T05:04:47.987Z,73.50
2017-08-26T05:07:15.520Z,73.40
2017-08-26T05:09:43.090Z,73.40
2017-08-26T05:12:10.567Z,73.20
2017-08-26T05:14:38.082Z,73.10
2017-08-26T05:17:05.559Z,73.40
2017-08-26T05:19:33.131Z,73.70
2017-08-26T05:22:00.603Z,73.10
2017-08-26T05:24:28.071Z,74.40
2017-08-26T05:26:55.589Z,73.50
2017-08-26T05:29:23.066Z,72.80
2017-08-26T05:31:50.611Z,73.00
2017-08-26T05:34:18.203Z,73.30
2017-08-26T05:36:45.682Z,73.60
2017-08-26T05:39:13.235Z,73.30
2017-08-26T05:41:40.706Z,73.60
2017-08-26T05:44:08.173Z,73.80
2017-08-26T05:46:35.637Z,72.90
2017-08-26T05:49:03.105Z,73.00
2017-08-26T05:51:30.569Z,72.70
2017-08-26T05:53:58.041Z,72.90
2017-08-26T05:56:25.583Z,73.30
2017-08-26T05:58:53.095Z,72.50
2017-08-26T06:01:20.595Z,72.00
2017-08-26T06:03:48.053Z,71.40
2017-08-26T06:06:15.564Z,71.20
2017-08-26T06:08:43.145Z,70.50
2017-08-26T06:11:10.623Z,70.40
2017-08-26T06:13:38.085Z,69.80
2017-08-26T06:16:05.649Z,70.10
2017-08-26T06:18:33.108Z,69.60
2017-08-26T06:21:00.658Z,69.80
2017-08-26T06:23:28.134Z,68.50
2017-08-26T06:25:55.615Z,68.10
2017-08-26T06:28:23.093Z,67.70
2017-08-26T06:30:50.578Z,67.70
2017-08-26T06:33:18.069Z,67.10
2017-08-26T06:35:45.536Z,67.10
2017-08-26T06:38:12.999Z,67.00
2017-08-26T06:40:40.464Z,66.40
2017-08-26T06:43:07.922Z,65.80
2017-08-26T06:45:35.392Z,65.20
2017-08-26T06:48:02.855Z,64.80
2017-08-26T06:50:30.345Z,65.00
2017-08-26T06:52:57.845Z,64.50
2017-08-26T06:55:25.349Z,63.40
2017-08-26T06:57:52.928Z,63.50
2017-08-26T07:00:20.423Z,62.30
2017-08-26T07:02:47.912Z,63.00
2017-08-26T07:05:15.383Z,63.30
2017-08-26T07:07:42.960Z,62.80
2017-08-26T07:10:10.421Z,62.10
2017-08-26T07:12:37.910Z,62.00
2017-08-26T07:15:05.426Z,61.30
2017-08-26T07:17:32.957Z,62.20
2017-08-26T07:20:00.552Z,61.90
2017-08-26T07:22:28.919Z,62.10
2017-08-26T07:24:56.386Z,62.30
2017-08-26T07:27:24.022Z,62.10
2017-08-26T07:29:51.509Z,62.10
2017-08-26T07:32:18.974Z,62.40
2017-08-26T07:34:46.500Z,63.00
2017-08-26T07:37:13.996Z,62.40
2017-08-26T07:39:41.472Z,62.00
2017-08-26T07:42:08.943Z,61.20
2017-08-26T07:44:36.421Z,61.50
2017-08-26T07:47:03.882Z,61.60
2017-08-26T07:49:31.379Z,61.20
2017-08-26T07:51:58.860Z,60.80
2017-08-26T07:54:26.326Z,60.30
2017-08-26T07:56:53.802Z,60.50
2017-08-26T07:59:21.287Z,60.10
2017-08-26T08:01:48.738Z,59.90
2017-08-26T08:04:16.286Z,59.90
2017-08-26T08:06:43.756Z,59.80
2017-08-26T08:09:11.278Z,59.90
2017-08-26T08:11:38.755Z,59.80
2017-08-26T08:14:06.227Z,60.30
2017-08-26T08:16:33.774Z,59.60
2017-08-26T08:19:01.327Z,59.80
2017-08-26T08:21:28.873Z,59.80
2017-08-26T08:23:56.444Z,59.50
2017-08-26T08:26:24.001Z,59.50
2017-08-26T08:28:51.497Z,59.80
2017-08-26T08:31:18.981Z,60.10
2017-08-26T08:33:46.469Z,60.30
2017-08-26T08:36:14.041Z,60.60
2017-08-26T08:38:41.614Z,60.00
2017-08-26T08:41:09.084Z,59.50
2017-08-26T08:43:36.552Z,59.40
2017-08-26T08:46:04.034Z,60.60
2017-08-26T08:48:31.494Z,59.50
2017-08-26T08:50:58.979Z,59.50
2017-08-26T08:53:26.540Z,59.20
2017-08-26T08:55:53.999Z,58.70
2017-08-26T08:58:21.559Z,58.40
2017-08-26T09:00:49.116Z,58.30
2017-08-26T09:03:16.578Z,58.20
2017-08-26T09:05:44.121Z,58.10
2017-08-26T09:08:11.682Z,57.60
2017-08-26T09:10:39.163Z,57.60
2017-08-26T09:13:06.694Z,58.30
2017-08-26T09:15:34.260Z,58.20
2017-08-26T09:18:01.728Z,58.30
2017-08-26T09:20:29.196Z,57.70
2017-08-26T09:22:56.660Z,56.60
2017-08-26T09:25:24.159Z,56.50
2017-08-26T09:27:51.635Z,55.70
2017-08-26T09:30:19.129Z,56.10
2017-08-26T09:32:46.597Z,55.70
2017-08-26T09:35:14.054Z,55.40
2017-08-26T09:37:41.570Z,55.50
2017-08-26T09:40:09.128Z,55.00
2017-08-26T09:42:36.627Z,55.20
2017-08-26T09:45:04.147Z,55.30
2017-08-26T09:47:31.702Z,55.50
2017-08-26T09:49:59.163Z,56.20
2017-08-26T09:52:26.762Z,55.60
2017-08-26T09:54:54.279Z,56.50
2017-08-26T09:57:21.733Z,56.10
2017-08-26T09:59:49.289Z,56.20
2017-08-26T10:02:16.749Z,57.00
2017-08-26T10:04:44.306Z,56.60
2017-08-26T10:07:11.790Z,56.90
2017-08-26T10:09:39.251Z,57.10
2017-08-26T10:12:06.777Z,56.00
2017-08-26T10:14:34.340Z,55.70
2017-08-26T10:17:01.810Z,56.10
2017-08-26T10:19:29.274Z,56.20
2017-08-26T10:21:56.805Z,56.20
2017-08-26T10:24:24.298Z,56.50
2017-08-26T10:26:51.823Z,56.30
2017-08-26T10:29:19.287Z,55.70
2017-08-26T10:31:46.745Z,56.00
2017-08-26T10:34:14.220Z,56.00
2017-08-26T10:36:41.697Z,56.10
2017-08-26T10:39:09.169Z,56.30
2017-08-26T10:41:36.656Z,55.90
2017-08-26T10:44:04.111Z,55.90
2017-08-26T10:46:31.585Z,56.20
2017-08-26T10:48:59.052Z,56.30
2017-08-26T10:51:26.598Z,55.90
2017-08-26T10:53:54.160Z,55.00
2017-08-26T10:56:21.647Z,55.20
2017-08-26T10:58:49.171Z,54.10
2017-08-26T11:01:17.613Z,53.20
2017-08-26T11:03:45.077Z,52.70
2017-08-26T11:06:12.573Z,53.20
2017-08-26T11:08:40.214Z,53.40
2017-08-26T11:11:07.675Z,53.40
2017-08-26T11:13:35.151Z,53.00
2017-08-26T11:16:02.689Z,52.50
2017-08-26T11:18:30.367Z,51.50
2017-08-26T11:20:57.961Z,52.20
2017-08-26T11:23:25.439Z,52.50
2017-08-26T11:25:52.897Z,52.30
2017-08-26T11:28:20.368Z,52.20
2017-08-26T11:30:47.839Z,52.30
2017-08-26T11:33:15.391Z,52.90
2017-08-26T11:35:42.874Z,53.20
2017-08-26T11:38:10.350Z,53.20
2017-08-26T11:40:37.872Z,53.00
2017-08-26T11:43:05.367Z,53.20
2017-08-26T11:45:32.817Z,53.00
2017-08-26T11:48:00.390Z,53.00
2017-08-26T11:50:27.890Z,53.10
2017-08-26T11:52:55.466Z,53.30
2017-08-26T11:55:22.932Z,53.80
2017-08-26T11:57:50.470Z,54.10
2017-08-26T12:00:18.021Z,53.50
2017-08-26T12:02:45.479Z,53.40
2017-08-26T12:05:13.060Z,51.40
2017-08-26T12:07:40.524Z,51.60
2017-08-26T12:10:08.057Z,51.20
2017-08-26T12:12:35.529Z,52.40
2017-08-26T12:15:03.086Z,52.30
2017-08-26T12:17:30.647Z,52.90
2017-08-26T12:19:58.146Z,53.00
2017-08-26T12:22:25.610Z,53.10
2017-08-26T12:24:53.118Z,53.20
2017-08-26T12:27:20.584Z,53.10
2017-08-26T12:29:48.046Z,53.60
2017-08-26T12:32:15.527Z,53.40
2017-08-26T12:34:43.042Z,53.70
2017-08-26T12:37:10.592Z,53.00
2017-08-26T12:39:38.206Z,53.50
2017-08-26T12:42:05.701Z,53.40
2017-08-26T12:44:33.169Z,52.80
2017-08-26T12:47:00.651Z,54.20
2017-08-26T12:49:28.187Z,53.50
2017-08-26T12:51:55.755Z,54.10
2017-08-26T12:54:23.227Z,54.00
2017-08-26T12:56:50.762Z,53.20
2017-08-26T12:59:18.217Z,53.90
2017-08-26T13:01:45.772Z,53.90
2017-08-26T13:04:13.221Z,53.80
2017-08-26T13:06:40.762Z,53.50
2017-08-26T13:09:08.241Z,53.10
2017-08-26T13:11:35.803Z,53.10
2017-08-26T13:14:03.362Z,53.50
2017-08-26T13:16:30.851Z,54.10
2017-08-26T13:18:58.320Z,53.70
2017-08-26T13:21:25.943Z,53.20
2017-08-26T13:23:53.491Z,53.10
2017-08-26T13:26:21.057Z,54.00
2017-08-26T13:28:48.529Z,53.60
2017-08-26T13:31:16.082Z,52.80
2017-08-26T13:33:43.547Z,53.50
2017-08-26T13:36:11.087Z,53.60
2017-08-26T13:38:38.638Z,53.90
2017-08-26T13:41:06.089Z,53.70
2017-08-26T13:43:33.666Z,53.90
2017-08-26T13:46:01.213Z,53.90
2017-08-26T13:48:28.772Z,54.40
2017-08-26T13:50:56.321Z,54.00
2017-08-26T13:53:23.790Z,54.10
2017-08-26T13:55:51.338Z,54.10
2017-08-26T13:58:18.893Z,54.10
2017-08-26T14:00:46.466Z,54.70
2017-08-26T14:03:13.944Z,54.20
2017-08-26T14:05:41.487Z,54.30
2017-08-26T14:08:09.042Z,54.40
2017-08-26T14:10:36.601Z,54.20
2017-08-26T14:13:04.096Z,54.50
2017-08-26T14:15:31.575Z,55.50
2017-08-26T14:17:59.042Z,55.20
2017-08-26T14:20:26.522Z,55.00
2017-08-26T14:22:54.085Z,54.90
2017-08-26T14:25:21.647Z,54.70
2017-08-26T14:27:49.200Z,54.80
2017-08-26T14:30:16.763Z,55.20
2017-08-26T14:32:44.258Z,54.70
2017-08-26T14:35:11.776Z,54.20
2017-08-26T14:37:39.254Z,54.30
2017-08-26T14:40:06.744Z,53.80
2017-08-26T14:42:34.256Z,53.30
2017-08-26T14:45:01.754Z,52.50
2017-08-26T14:47:29.297Z,52.80
2017-08-26T14:49:56.783Z,51.80
2017-08-26T14:52:24.257Z,52.00
2017-08-26T14:54:51.718Z,51.20
2017-08-26T14:57:19.279Z,51.40
2017-08-26T14:59:46.846Z,51.00
2017-08-26T15:02:14.315Z,50.50
2017-08-26T15:04:41.866Z,50.40
2017-08-26T15:07:09.435Z,50.60
2017-08-26T15:09:36.991Z,50.50
2017-08-26T15:12:04.598Z,51.00
2017-08-26T15:14:32.081Z,51.20
2017-08-26T15:16:59.556Z,51.50
2017-08-26T15:19:27.045Z,51.60
2017-08-26T15:21:54.571Z,51.70
2017-08-26T15:24:22.066Z,52.20
2017-08-26T15:26:49.594Z,52.80
2017-08-26T15:29:17.062Z,53.50
2017-08-26T15:31:44.610Z,53.50
2017-08-26T15:34:12.079Z,53.90
2017-08-26T15:36:39.634Z,54.40
2017-08-26T15:39:07.170Z,54.70
2017-08-26T15:41:34.654Z,54.70
2017-08-26T15:44:02.207Z,54.90
2017-08-26T15:46:29.754Z,55.20
2017-08-26T15:48:57.310Z,55.30
2017-08-26T15:51:24.920Z,55.40
2017-08-26T15:53:52.436Z,55.50
2017-08-26T15:56:19.982Z,56.00
2017-08-26T15:58:47.541Z,56.10
2017-08-26T16:01:15.213Z,56.40
2017-08-26T16:03:42.753Z,56.60
2017-08-26T16:06:10.312Z,57.50
2017-08-26T16:08:37.797Z,56.70
2017-08-26T16:11:05.335Z,56.90
2017-08-26T16:13:32.895Z,57.00
2017-08-26T16:16:00.374Z,56.70
2017-08-26T16:18:27.846Z,56.80
2017-08-26T16:20:55.322Z,56.90
2017-08-26T16:23:22.845Z,56.80
2017-08-26T16:25:50.326Z,57.20
2017-08-26T16:28:17.802Z,56.80
2017-08-26T16:30:45.270Z,56.90
2017-08-26T16:33:12.842Z,57.10
2017-08-26T16:35:40.414Z,57.30
2017-08-26T16:38:07.895Z,57.30
2017-08-26T16:40:35.353Z,57.50
2017-08-26T16:43:02.936Z,57.80
2017-08-26T16:45:30.474Z,57.90
2017-08-26T16:47:57.948Z,58.20
2017-08-26T16:50:25.408Z,58.70
2017-08-26T16:52:53.734Z,58.60
2017-08-26T16:55:21.219Z,58.50
2017-08-26T16:57:48.693Z,58.80
2017-08-26T17:00:16.161Z,58.50
2017-08-26T17:02:43.660Z,58.60
2017-08-26T17:05:11.247Z,59.10
2017-08-26T17:07:38.758Z,60.10
2017-08-26T17:10:06.364Z,60.40
2017-08-26T17:12:33.839Z,60.70
2017-08-26T17:15:01.387Z,60.80
2017-08-26T17:17:28.855Z,60.60
2017-08-26T17:19:56.364Z,61.10
2017-08-26T17:22:23.830Z,61.50
2017-08-26T17:24:51.298Z,61.80
2017-08-26T17:27:18.840Z,61.80
2017-08-26T17:29:46.369Z,61.90
2017-08-26T17:32:13.843Z,62.40
2017-08-26T17:34:41.402Z,62.70
2017-08-26T17:37:08.884Z,62.60
2017-08-26T17:39:36.355Z,62.40
2017-08-26T17:42:03.855Z,63.50
2017-08-26T17:44:31.428Z,63.40
2017-08-26T17:46:58.936Z,63.60
2017-08-26T17:49:26.462Z,64.20
2017-08-26T17:51:54.058Z,63.50
2017-08-26T17:54:21.547Z,63.70
2017-08-26T17:56:49.048Z,63.70
2017-08-26T17:59:16.613Z,63.60
2017-08-26T18:01:44.090Z,63.80
2017-08-26T18:04:12.368Z,64.00
2017-08-26T18:06:39.832Z,63.80
2017-08-26T18:09:07.356Z,64.50
2017-08-26T18:11:34.839Z,63.90
2017-08-26T18:14:02.363Z,64.10
2017-08-26T18:16:29.866Z,64.70
2017-08-26T18:18:57.374Z,64.60
2017-08-26T18:21:24.942Z,64.30
2017-08-26T18:23:52.541Z,64.90
2017-08-26T18:26:20.025Z,65.50
2017-08-26T18:28:47.609Z,65.00
2017-08-26T18:31:15.119Z,65.40
2017-08-26T18:33:42.623Z,65.50
2017-08-26T18:36:11.202Z,65.80
2017-08-26T18:38:38.754Z,66.00
2017-08-26T18:41:06.240Z,66.50
2017-08-26T18:43:33.797Z,66.50
2017-08-26T18:46:01.318Z,66.50
2017-08-26T18:48:28.782Z,66.50
2017-08-26T18:50:56.323Z,66.40
2017-08-26T18:53:23.797Z,66.30
2017-08-26T18:55:51.370Z,66.50
2017-08-26T18:58:18.856Z,66.50
2017-08-26T19:00:46.385Z,66.50
2017-08-26T19:03:13.871Z,66.80
2017-08-26T19:05:41.397Z,67.10
2017-08-26T19:08:08.902Z,67.10
2017-08-26T19:10:36.404Z,67.80
2017-08-26T19:13:03.887Z,66.90
2017-08-26T19:15:31.457Z,67.30
2017-08-26T19:17:58.955Z,67.50
2017-08-26T19:20:26.558Z,67.60
2017-08-26T19:22:54.042Z,67.60
2017-08-26T19:25:21.925Z,67.90
2017-08-26T19:27:49.428Z,67.90
2017-08-26T19:30:16.906Z,68.10
2017-08-26T19:32:44.456Z,68.10
2017-08-26T19:35:11.936Z,67.90
2017-08-26T19:37:39.483Z,67.90
2017-08-26T19:40:07.026Z,67.70
2017-08-26T19:42:34.570Z,67.50
2017-08-26T19:45:02.066Z,67.40
2017-08-26T19:47:29.559Z,67.60
2017-08-26T19:49:57.047Z,67.70
2017-08-26T19:52:24.522Z,67.80
2017-08-26T19:54:52.061Z,68.30
2017-08-26T19:57:19.569Z,68.80
2017-08-26T19:59:47.061Z,69.10
2017-08-26T20:02:14.627Z,69.70
2017-08-26T20:04:42.105Z,69.60
2017-08-26T20:07:09.617Z,69.50
2017-08-26T20:09:37.097Z,69.30
2017-08-26T20:12:04.575Z,69.40
2017-08-26T20:14:32.041Z,69.10
2017-08-26T20:16:59.501Z,69.40
2017-08-26T20:19:26.995Z,69.80
2017-08-26T20:21:54.503Z,69.90
2017-08-26T20:24:21.978Z,69.90
2017-08-26T20:26:49.511Z,70.10
2017-08-26T20:29:17.067Z,71.20
2017-08-26T20:31:44.559Z,70.60
2017-08-26T20:34:12.169Z,70.50
2017-08-26T20:36:39.686Z,70.80
2017-08-26T20:39:07.321Z,70.80
2017-08-26T20:41:34.789Z,71.00
2017-08-26T20:44:02.254Z,70.50
2017-08-26T20:46:29.765Z,70.20
2017-08-26T20:48:57.344Z,70.30
2017-08-26T20:51:24.827Z,70.20
2017-08-26T20:53:52.349Z,70.60
2017-08-26T20:56:19.820Z,71.10
2017-08-26T20:58:47.281Z,70.80
2017-08-26T21:01:14.789Z,70.70
2017-08-26T21:03:42.264Z,70.70
2017-08-26T21:06:09.743Z,70.80
2017-08-26T21:08:37.338Z,71.30
2017-08-26T21:11:04.867Z,71.10
2017-08-26T21:13:32.421Z,71.20
2017-08-26T21:16:00.071Z,71.10
2017-08-26T21:18:27.566Z,71.20
2017-08-26T21:20:55.063Z,71.20
2017-08-26T21:23:22.541Z,71.10
2017-08-26T21:25:50.045Z,71.10
2017-08-26T21:28:17.506Z,71.10
2017-08-26T21:30:45.120Z,70.90
2017-08-26T21:33:12.596Z,70.90
2017-08-26T21:35:40.056Z,71.20
2017-08-26T21:38:07.542Z,72.00
2017-08-26T21:40:35.013Z,71.80
2017-08-26T21:43:02.494Z,71.30
2017-08-26T21:45:30.393Z,71.40
2017-08-26T21:47:57.878Z,71.30
2017-08-26T21:50:25.349Z,71.40
2017-08-26T21:52:52.815Z,71.40
2017-08-26T21:55:20.392Z,71.70
2017-08-26T21:57:47.951Z,71.60
2017-08-26T22:00:15.454Z,71.70
2017-08-26T22:02:42.973Z,72.10
2017-08-26T22:05:10.457Z,71.90
2017-08-26T22:07:37.982Z,72.20
2017-08-26T22:10:05.460Z,72.00
2017-08-26T22:12:33.006Z,72.20
2017-08-26T22:15:00.497Z,72.20
2017-08-26T22:17:28.000Z,72.30
2017-08-26T22:19:55.574Z,72.30
2017-08-26T22:22:23.057Z,72.40
2017-08-26T22:24:50.529Z,73.20
2017-08-26T22:27:17.992Z,72.40
2017-08-26T22:29:45.499Z,72.30
2017-08-26T22:32:13.064Z,72.20
2017-08-26T22:34:40.526Z,71.80
2017-08-26T22:37:08.079Z,71.50
2017-08-26T22:39:35.635Z,72.30
2017-08-26T22:42:03.194Z,72.20
2017-08-26T22:44:30.698Z,73.00
2017-08-26T22:46:58.180Z,72.50
2017-08-26T22:49:25.759Z,72.90
2017-08-26T22:51:53.267Z,72.30
2017-08-26T22:54:20.766Z,72.50
2017-08-26T22:56:48.329Z,72.70
2017-08-26T22:59:16.611Z,73.00
2017-08-26T23:01:44.215Z,73.10
2017-08-26T23:04:11.725Z,73.30
2017-08-26T23:06:39.210Z,73.70
2017-08-26T23:09:06.681Z,73.70
2017-08-26T23:11:34.174Z,73.60
2017-08-26T23:14:01.652Z,73.80
2017-08-26T23:16:29.210Z,73.80
2017-08-26T23:18:56.793Z,73.90
2017-08-26T23:21:24.276Z,74.00
2017-08-26T23:23:51.777Z,74.10
2017-08-26T23:26:19.355Z,74.10
2017-08-26T23:28:46.956Z,74.20
2017-08-26T23:31:14.442Z,74.20
2017-08-26T23:33:41.955Z,74.10
2017-08-26T23:36:09.474Z,74.20
2017-08-26T23:38:36.954Z,74.50
2017-08-26T23:41:04.446Z,74.50
2017-08-26T23:43:31.927Z,74.70
2017-08-26T23:45:59.506Z,74.70
2017-08-26T23:48:27.098Z,74.70
2017-08-26T23:50:54.642Z,74.90
2017-08-26T23:53:22.177Z,75.00
2017-08-26T23:55:49.758Z,75.00
2017-08-26T23:58:17.297Z,75.20
